createdAt,value
2023-02-18T00:00:28.989Z,7.90
2023-02-18T00:02:58.491Z,7.53
2023-02-18T00:05:25.228Z,7.65
2023-02-18T00:07:51.903Z,7.53
2023-02-18T00:10:18.626Z,7.58
2023-02-18T00:12:45.282Z,7.77
2023-02-18T00:15:12.046Z,7.85
2023-02-18T00:17:38.841Z,7.90
2023-02-18T00:20:08.276Z,7.74
2023-02-18T00:22:35.313Z,7.65
2023-02-18T00:25:02.008Z,7.76
2023-02-18T00:27:28.787Z,7.81
2023-02-18T00:29:55.492Z,7.69
2023-02-18T00:32:22.130Z,7.65
2023-02-18T00:34:48.799Z,7.70
2023-02-18T00:37:15.468Z,7.79
2023-02-18T00:39:42.282Z,7.56
2023-02-18T00:42:08.937Z,7.65
2023-02-18T00:44:35.647Z,7.70
2023-02-18T00:47:02.239Z,7.77
2023-02-18T00:49:28.862Z,7.87
2023-02-18T00:51:55.549Z,7.72
2023-02-18T00:54:22.120Z,7.64
2023-02-18T00:56:50.405Z,7.71
2023-02-18T00:59:17.123Z,7.82
2023-02-18T01:01:44.282Z,7.80
2023-02-18T01:04:11.041Z,7.79
2023-02-18T01:06:37.821Z,7.53
2023-02-18T01:09:05.637Z,7.79
2023-02-18T01:11:32.857Z,7.35
2023-02-18T01:13:59.692Z,7.29
2023-02-18T01:16:29.397Z,7.57
2023-02-18T01:18:56.067Z,7.77
2023-02-18T01:21:22.647Z,7.68
2023-02-18T01:23:49.402Z,7.57
2023-02-18T01:26:16.308Z,7.69
2023-02-18T01:28:42.988Z,7.49
2023-02-18T01:31:12.512Z,7.47
2023-02-18T01:33:39.471Z,7.57
2023-02-18T01:36:07.187Z,7.55
2023-02-18T01:38:34.183Z,7.46
2023-02-18T01:41:00.799Z,7.43
2023-02-18T01:43:28.722Z,7.48
2023-02-18T01:46:01.003Z,7.32
2023-02-18T01:48:42.382Z,7.61
2023-02-18T01:51:12.024Z,7.63
2023-02-18T01:53:49.230Z,7.59
2023-02-18T01:56:22.903Z,7.46
2023-02-18T01:58:53.156Z,7.29
2023-02-18T02:01:19.939Z,7.18
2023-02-18T02:03:46.603Z,7.45
2023-02-18T02:06:18.481Z,7.56
2023-02-18T02:08:47.243Z,7.61
2023-02-18T02:11:39.691Z,7.76
2023-02-18T02:14:18.493Z,7.81
2023-02-18T02:16:54.721Z,7.80
2023-02-18T02:19:49.203Z,7.77
2023-02-18T02:22:41.118Z,7.67
2023-02-18T02:25:24.425Z,7.70
2023-02-18T02:28:18.844Z,7.82
2023-02-18T02:31:21.893Z,7.81
2023-02-18T02:34:17.821Z,7.86
2023-02-18T02:36:54.575Z,7.68
2023-02-18T02:39:25.270Z,7.77
2023-02-18T02:41:54.968Z,7.82
2023-02-18T02:44:38.739Z,7.62
2023-02-18T02:47:12.518Z,7.66
2023-02-18T02:49:53.409Z,7.68
2023-02-18T02:52:29.007Z,7.70
2023-02-18T02:54:55.617Z,7.58
2023-02-18T02:57:22.210Z,7.79
2023-02-18T03:00:01.802Z,7.71
2023-02-18T03:02:35.499Z,7.64
2023-02-18T03:05:11.150Z,7.58
2023-02-18T03:08:08.654Z,7.56
2023-02-18T03:10:48.314Z,7.60
2023-02-18T03:13:50.730Z,7.48
2023-02-18T03:16:28.621Z,7.38
2023-02-18T03:19:04.266Z,7.28
2023-02-18T03:21:41.529Z,6.98
2023-02-18T03:24:20.492Z,7.31
2023-02-18T03:27:04.379Z,7.36
2023-02-18T03:29:31.819Z,7.15
2023-02-18T03:32:03.289Z,7.24
2023-02-18T03:34:33.050Z,7.38
2023-02-18T03:37:01.474Z,7.03
2023-02-18T03:39:31.102Z,7.19
2023-02-18T03:41:58.169Z,6.82
2023-02-18T03:44:25.987Z,7.17
2023-02-18T03:46:53.191Z,7.18
2023-02-18T03:49:20.486Z,7.10
2023-02-18T03:51:48.043Z,7.12
2023-02-18T03:54:14.767Z,7.26
2023-02-18T03:56:42.845Z,7.49
2023-02-18T03:59:11.313Z,7.53
2023-02-18T04:01:38.241Z,7.47
2023-02-18T04:04:05.376Z,7.39
2023-02-18T04:06:32.181Z,7.63
2023-02-18T04:08:58.737Z,7.43
2023-02-18T04:11:25.323Z,7.34
2023-02-18T04:13:51.968Z,7.62
2023-02-18T04:16:18.672Z,7.73
2023-02-18T04:18:45.309Z,7.63
2023-02-18T04:21:11.884Z,7.72
2023-02-18T04:23:38.497Z,7.82
2023-02-18T04:26:05.105Z,7.74
2023-02-18T04:28:31.686Z,7.59
2023-02-18T04:30:58.281Z,7.53
2023-02-18T04:33:24.921Z,7.81
2023-02-18T04:35:51.741Z,7.59
2023-02-18T04:38:18.415Z,7.74
2023-02-18T04:40:45.041Z,7.50
2023-02-18T04:43:11.738Z,7.56
2023-02-18T04:45:38.362Z,7.78
2023-02-18T04:48:05.387Z,7.78
2023-02-18T04:50:32.053Z,7.54
2023-02-18T04:52:58.619Z,7.57
2023-02-18T04:55:25.335Z,7.16
2023-02-18T04:57:51.959Z,7.62
2023-02-18T05:00:19.875Z,7.72
2023-02-18T05:02:46.476Z,7.65
2023-02-18T05:05:13.933Z,7.68
2023-02-18T05:07:42.379Z,7.67
2023-02-18T05:10:11.316Z,7.53
2023-02-18T05:12:38.171Z,7.60
2023-02-18T05:15:05.137Z,7.69
2023-02-18T05:17:31.937Z,7.54
2023-02-18T05:19:58.537Z,7.64
2023-02-18T05:22:25.232Z,7.48
2023-02-18T05:24:51.850Z,7.49
2023-02-18T05:27:18.456Z,7.47
2023-02-18T05:29:45.105Z,7.48
2023-02-18T05:32:11.707Z,7.66
2023-02-18T05:34:38.394Z,7.51
2023-02-18T05:37:05.239Z,7.68
2023-02-18T05:39:31.856Z,7.46
2023-02-18T05:41:58.480Z,7.48
2023-02-18T05:44:31.140Z,7.56
2023-02-18T05:47:04.103Z,7.60
2023-02-18T05:49:32.313Z,7.64
2023-02-18T05:51:59.425Z,7.44
2023-02-18T05:54:26.261Z,7.66
2023-02-18T05:56:53.573Z,7.62
2023-02-18T05:59:20.920Z,7.50
2023-02-18T06:01:48.232Z,7.24
2023-02-18T06:04:15.537Z,7.27
2023-02-18T06:06:42.686Z,7.36
2023-02-18T06:09:09.857Z,7.46
2023-02-18T06:11:36.453Z,7.47
2023-02-18T06:14:03.248Z,7.51
2023-02-18T06:16:30.546Z,7.51
2023-02-18T06:18:57.744Z,7.58
2023-02-18T06:21:24.734Z,7.38
2023-02-18T06:23:51.438Z,7.58
2023-02-18T06:26:18.337Z,7.43
2023-02-18T06:28:44.951Z,7.22
2023-02-18T06:31:11.667Z,7.44
2023-02-18T06:33:38.283Z,7.58
2023-02-18T06:36:11.666Z,7.26
2023-02-18T06:38:43.506Z,7.55
2023-02-18T06:41:11.483Z,7.53
2023-02-18T06:43:38.633Z,7.48
2023-02-18T06:46:08.958Z,7.31
2023-02-18T06:48:35.802Z,7.24
2023-02-18T06:51:02.443Z,7.38
2023-02-18T06:53:29.137Z,7.36
2023-02-18T06:55:56.254Z,7.29
2023-02-18T06:58:23.399Z,7.23
2023-02-18T07:00:51.056Z,7.45
2023-02-18T07:03:17.736Z,7.31
2023-02-18T07:05:44.459Z,7.25
2023-02-18T07:08:11.424Z,7.28
2023-02-18T07:10:38.302Z,7.50
2023-02-18T07:13:05.401Z,7.46
2023-02-18T07:15:32.015Z,7.33
2023-02-18T07:17:58.860Z,7.54
2023-02-18T07:20:26.450Z,7.56
2023-02-18T07:22:53.300Z,7.53
2023-02-18T07:25:23.053Z,7.56
2023-02-18T07:27:50.641Z,7.67
2023-02-18T07:30:18.523Z,7.70
2023-02-18T07:32:45.214Z,7.71
2023-02-18T07:35:15.305Z,7.72
2023-02-18T07:37:49.217Z,7.72
2023-02-18T07:40:18.879Z,7.72
2023-02-18T07:42:45.619Z,7.69
2023-02-18T07:45:12.865Z,7.77
2023-02-18T07:47:39.659Z,7.58
2023-02-18T07:50:07.198Z,7.80
2023-02-18T07:52:33.765Z,7.59
2023-02-18T07:55:00.473Z,7.81
2023-02-18T07:57:27.081Z,7.80
2023-02-18T07:59:53.716Z,7.80
2023-02-18T08:02:23.214Z,7.80
2023-02-18T08:04:50.114Z,7.64
2023-02-18T08:07:19.304Z,7.64
2023-02-18T08:09:46.041Z,7.82
2023-02-18T08:12:12.634Z,7.59
2023-02-18T08:14:39.550Z,7.75
2023-02-18T08:17:06.187Z,7.69
2023-02-18T08:19:32.788Z,7.89
2023-02-18T08:22:02.053Z,7.85
2023-02-18T08:24:28.730Z,7.68
2023-02-18T08:27:00.860Z,8.00
2023-02-18T08:29:28.447Z,7.90
2023-02-18T08:31:57.232Z,7.99
2023-02-18T08:34:24.047Z,7.96
2023-02-18T08:36:50.675Z,8.02
2023-02-18T08:39:17.314Z,8.22
2023-02-18T08:41:43.972Z,7.98
2023-02-18T08:44:10.637Z,8.11
2023-02-18T08:46:37.420Z,8.15
2023-02-18T08:49:05.002Z,8.20
2023-02-18T08:51:31.974Z,8.48
2023-02-18T08:53:58.689Z,8.41
2023-02-18T08:56:25.635Z,8.46
2023-02-18T08:58:52.316Z,8.42
2023-02-18T09:01:18.960Z,8.34
2023-02-18T09:03:45.597Z,8.55
2023-02-18T09:06:12.187Z,8.26
2023-02-18T09:08:38.866Z,8.37
2023-02-18T09:11:05.798Z,8.53
2023-02-18T09:13:33.879Z,8.54
2023-02-18T09:16:10.786Z,8.58
2023-02-18T09:18:37.652Z,8.47
2023-02-18T09:21:07.093Z,8.45
2023-02-18T09:23:34.261Z,8.35
2023-02-18T09:26:05.650Z,8.72
2023-02-18T09:28:32.500Z,8.54
2023-02-18T09:31:04.908Z,8.69
2023-02-18T09:33:31.686Z,8.79
2023-02-18T09:35:58.300Z,8.68
2023-02-18T09:38:24.938Z,9.01
2023-02-18T09:40:54.457Z,9.04
2023-02-18T09:43:31.667Z,9.01
2023-02-18T09:46:00.357Z,8.84
2023-02-18T09:48:31.538Z,8.81
2023-02-18T09:50:58.886Z,8.80
2023-02-18T09:53:25.890Z,8.64
2023-02-18T09:55:56.230Z,8.82
2023-02-18T09:58:34.454Z,8.91
2023-02-18T10:01:07.199Z,8.98
2023-02-18T10:03:34.195Z,8.85
2023-02-18T10:06:18.204Z,8.66
2023-02-18T10:08:47.839Z,8.87
2023-02-18T10:11:17.659Z,9.11
2023-02-18T10:13:45.414Z,9.03
2023-02-18T10:16:17.925Z,9.06
2023-02-18T10:18:49.270Z,9.14
2023-02-18T10:21:20.880Z,9.20
2023-02-18T10:24:15.359Z,9.24
2023-02-18T10:26:42.778Z,9.51
2023-02-18T10:29:21.390Z,9.32
2023-02-18T10:31:57.245Z,9.62
2023-02-18T10:34:28.560Z,9.57
2023-02-18T10:37:04.946Z,9.39
2023-02-18T10:39:43.915Z,9.44
2023-02-18T10:42:16.068Z,8.99
2023-02-18T10:44:58.864Z,9.33
2023-02-18T10:47:40.188Z,9.35
2023-02-18T10:50:10.044Z,9.33
2023-02-18T10:52:45.820Z,9.36
2023-02-18T10:55:18.387Z,9.38
2023-02-18T10:57:51.192Z,9.44
2023-02-18T11:00:28.081Z,9.30
2023-02-18T11:03:14.805Z,9.42
2023-02-18T11:05:41.990Z,9.40
2023-02-18T11:08:14.245Z,9.53
2023-02-18T11:10:45.028Z,9.52
2023-02-18T11:13:15.036Z,9.54
2023-02-18T11:16:03.954Z,9.65
2023-02-18T11:18:37.938Z,9.60
2023-02-18T11:21:21.359Z,9.52
2023-02-18T11:23:51.319Z,9.79
2023-02-18T11:26:31.128Z,9.78
2023-02-18T11:29:21.550Z,9.84
2023-02-18T11:31:51.205Z,9.54
2023-02-18T11:34:25.808Z,9.92
2023-02-18T11:36:53.352Z,9.59
2023-02-18T11:39:26.549Z,9.63
2023-02-18T11:41:57.806Z,9.78
2023-02-18T11:44:33.045Z,9.59
2023-02-18T11:47:02.110Z,9.89
2023-02-18T11:49:30.002Z,9.80
2023-02-18T11:52:14.317Z,9.57
2023-02-18T11:54:40.950Z,9.91
2023-02-18T11:57:13.745Z,9.97
2023-02-18T11:59:42.457Z,9.75
2023-02-18T12:02:12.328Z,10.04
2023-02-18T12:04:42.088Z,10.07
2023-02-18T12:07:23.746Z,10.05
2023-02-18T12:09:54.906Z,10.12
2023-02-18T12:12:32.212Z,9.86
2023-02-18T12:15:00.186Z,9.99
2023-02-18T12:18:09.336Z,9.97
2023-02-18T12:20:51.376Z,9.92
2023-02-18T12:23:47.090Z,9.66
2023-02-18T12:26:34.066Z,9.90
2023-02-18T12:29:28.801Z,9.81
2023-02-18T12:32:01.586Z,9.74
2023-02-18T12:34:46.196Z,9.82
2023-02-18T12:37:12.825Z,9.82
2023-02-18T12:40:00.846Z,9.80
2023-02-18T12:43:04.999Z,9.77
2023-02-18T12:46:00.398Z,9.61
2023-02-18T12:49:03.907Z,9.64
2023-02-18T12:51:32.881Z,9.79
2023-02-18T12:54:41.477Z,9.83
2023-02-18T12:57:29.430Z,9.77
2023-02-18T13:00:38.121Z,9.76
2023-02-18T13:03:29.526Z,9.75
2023-02-18T13:06:22.834Z,9.69
2023-02-18T13:09:20.489Z,9.52
2023-02-18T13:12:21.138Z,9.62
2023-02-18T13:15:03.336Z,9.35
2023-02-18T13:17:38.242Z,9.38
2023-02-18T13:20:17.850Z,9.51
2023-02-18T13:22:46.136Z,9.41
2023-02-18T13:25:14.095Z,9.20
2023-02-18T13:27:46.799Z,9.51
2023-02-18T13:30:16.453Z,9.51
2023-02-18T13:33:05.304Z,9.25
2023-02-18T13:36:05.316Z,9.52
2023-02-18T13:38:58.227Z,9.38
2023-02-18T13:41:27.254Z,9.35
2023-02-18T13:43:54.288Z,9.34
2023-02-18T13:46:24.800Z,9.44
2023-02-18T13:48:55.238Z,9.60
2023-02-18T13:51:30.645Z,9.84
2023-02-18T13:54:03.034Z,9.89
2023-02-18T13:56:33.081Z,9.58
2023-02-18T13:59:11.589Z,9.73
2023-02-18T14:01:40.376Z,9.73
2023-02-18T14:04:42.225Z,9.72
2023-02-18T14:07:27.744Z,9.65
2023-02-18T14:09:59.654Z,9.58
2023-02-18T14:12:38.687Z,9.57
2023-02-18T14:15:25.607Z,9.46
2023-02-18T14:18:14.208Z,9.43
2023-02-18T14:20:40.839Z,9.40
2023-02-18T14:23:51.740Z,9.26
2023-02-18T14:26:30.360Z,9.10
2023-02-18T14:29:02.978Z,9.21
2023-02-18T14:31:34.271Z,8.91
2023-02-18T14:34:14.159Z,8.78
2023-02-18T14:37:12.836Z,8.36
2023-02-18T14:40:06.465Z,8.58
2023-02-18T14:42:59.394Z,8.49
2023-02-18T14:45:50.307Z,8.15
2023-02-18T14:48:53.968Z,8.52
2023-02-18T14:51:25.312Z,8.47
2023-02-18T14:53:52.745Z,8.20
2023-02-18T14:56:21.465Z,8.42
2023-02-18T14:58:57.506Z,8.30
2023-02-18T15:01:33.191Z,8.39
2023-02-18T15:04:01.662Z,8.34
2023-02-18T15:06:28.292Z,8.46
2023-02-18T15:08:55.045Z,8.14
2023-02-18T15:11:24.987Z,8.50
2023-02-18T15:13:51.951Z,8.23
2023-02-18T15:16:37.122Z,8.35
2023-02-18T15:19:07.980Z,8.39
2023-02-18T15:21:40.848Z,8.61
2023-02-18T15:24:18.614Z,8.46
2023-02-18T15:26:50.321Z,8.61
2023-02-18T15:29:21.514Z,8.77
2023-02-18T15:31:49.212Z,8.72
2023-02-18T15:34:38.444Z,8.57
2023-02-18T15:37:12.237Z,8.76
2023-02-18T15:39:42.254Z,8.73
2023-02-18T15:42:24.537Z,8.73
2023-02-18T15:44:56.176Z,8.61
2023-02-18T15:47:23.459Z,8.80
2023-02-18T15:49:59.525Z,8.77
2023-02-18T15:52:38.162Z,8.79
2023-02-18T15:55:11.844Z,8.81
2023-02-18T15:57:40.144Z,8.77
2023-02-18T16:00:18.861Z,8.74
2023-02-18T16:03:13.584Z,8.83
2023-02-18T16:05:46.607Z,8.75
2023-02-18T16:08:15.257Z,8.53
2023-02-18T16:10:54.527Z,8.52
2023-02-18T16:13:22.037Z,8.71
2023-02-18T16:15:51.222Z,8.62
2023-02-18T16:18:23.995Z,8.77
2023-02-18T16:21:04.231Z,8.77
2023-02-18T16:23:35.649Z,8.56
2023-02-18T16:26:23.636Z,8.63
2023-02-18T16:28:52.508Z,8.68
2023-02-18T16:31:21.962Z,8.78
2023-02-18T16:33:49.501Z,8.74
2023-02-18T16:36:17.351Z,8.52
2023-02-18T16:38:45.454Z,8.55
2023-02-18T16:41:13.896Z,8.77
2023-02-18T16:43:41.394Z,8.64
2023-02-18T16:46:16.884Z,8.77
2023-02-18T16:48:46.847Z,8.76
2023-02-18T16:51:20.974Z,8.62
2023-02-18T16:53:47.604Z,8.72
2023-02-18T16:56:16.910Z,8.45
2023-02-18T16:58:43.666Z,8.60
2023-02-18T17:01:21.088Z,8.75
2023-02-18T17:03:48.981Z,8.50
2023-02-18T17:06:18.836Z,8.61
2023-02-18T17:08:45.504Z,8.36
2023-02-18T17:11:25.941Z,8.71
2023-02-18T17:13:54.380Z,8.36
2023-02-18T17:16:21.994Z,8.22
2023-02-18T17:18:50.124Z,8.35
2023-02-18T17:21:22.635Z,8.73
2023-02-18T17:23:50.042Z,8.56
2023-02-18T17:26:28.340Z,8.57
2023-02-18T17:28:57.192Z,8.70
2023-02-18T17:31:31.008Z,8.53
2023-02-18T17:34:01.888Z,8.47
2023-02-18T17:36:28.480Z,8.36
2023-02-18T17:38:55.144Z,8.30
2023-02-18T17:41:21.746Z,8.35
2023-02-18T17:43:48.469Z,8.61
2023-02-18T17:46:18.018Z,8.58
2023-02-18T17:48:45.734Z,8.46
2023-02-18T17:51:27.836Z,8.62
2023-02-18T17:53:54.677Z,8.48
2023-02-18T17:56:21.730Z,8.35
2023-02-18T17:58:48.933Z,8.44
2023-02-18T18:01:15.920Z,8.35
2023-02-18T18:03:42.801Z,8.48
2023-02-18T18:06:20.517Z,8.33
2023-02-18T18:08:48.235Z,8.22
2023-02-18T18:11:25.155Z,8.30
2023-02-18T18:13:53.007Z,8.21
2023-02-18T18:16:20.986Z,8.36
2023-02-18T18:18:47.663Z,7.72
2023-02-18T18:21:22.159Z,8.25
2023-02-18T18:23:50.074Z,8.06
2023-02-18T18:26:17.124Z,8.07
2023-02-18T18:28:43.753Z,8.02
2023-02-18T18:31:18.748Z,8.06
2023-02-18T18:33:51.463Z,8.15
2023-02-18T18:36:24.155Z,8.14
2023-02-18T18:38:51.169Z,7.68
2023-02-18T18:41:21.273Z,7.76
2023-02-18T18:43:49.509Z,7.71
2023-02-18T18:46:16.469Z,7.97
2023-02-18T18:48:43.245Z,7.86
2023-02-18T18:51:20.898Z,8.00
2023-02-18T18:53:47.561Z,7.91
2023-02-18T18:56:14.266Z,7.92
2023-02-18T18:58:41.133Z,7.92
2023-02-18T19:01:18.318Z,7.90
2023-02-18T19:03:48.531Z,7.81
2023-02-18T19:06:16.696Z,7.77
2023-02-18T19:08:45.250Z,7.80
2023-02-18T19:11:12.807Z,7.81
2023-02-18T19:13:40.217Z,7.78
2023-02-18T19:16:37.563Z,7.77
2023-02-18T19:19:04.189Z,7.69
2023-02-18T19:21:31.752Z,7.55
2023-02-18T19:23:59.894Z,7.49
2023-02-18T19:26:26.536Z,7.61
2023-02-18T19:28:53.203Z,7.64
2023-02-18T19:31:24.341Z,7.36
2023-02-18T19:33:51.648Z,7.35
2023-02-18T19:36:18.912Z,7.54
2023-02-18T19:38:46.150Z,7.29
2023-02-18T19:41:16.864Z,7.42
2023-02-18T19:43:44.728Z,7.39
2023-02-18T19:46:17.713Z,7.36
2023-02-18T19:48:49.458Z,7.30
2023-02-18T19:51:16.231Z,7.12
2023-02-18T19:53:46.028Z,7.04
2023-02-18T19:56:12.852Z,6.94
2023-02-18T19:58:40.125Z,7.19
2023-02-18T20:01:17.156Z,7.16
2023-02-18T20:03:44.334Z,6.96
2023-02-18T20:06:16.179Z,7.15
2023-02-18T20:08:43.071Z,7.02
2023-02-18T20:11:09.908Z,7.13
2023-02-18T20:13:36.901Z,6.88
2023-02-18T20:16:07.280Z,6.91
2023-02-18T20:18:34.120Z,6.86
2023-02-18T20:21:00.879Z,6.82
2023-02-18T20:23:27.705Z,7.11
2023-02-18T20:25:54.505Z,6.95
2023-02-18T20:28:21.231Z,7.13
2023-02-18T20:30:47.998Z,6.90
2023-02-18T20:33:14.653Z,7.11
2023-02-18T20:35:41.350Z,7.11
2023-02-18T20:38:08.029Z,6.84
2023-02-18T20:40:34.674Z,7.09
2023-02-18T20:43:01.314Z,6.76
2023-02-18T20:45:27.969Z,7.04
2023-02-18T20:47:54.647Z,7.01
2023-02-18T20:50:21.798Z,6.82
2023-02-18T20:52:48.555Z,6.98
2023-02-18T20:55:15.272Z,6.89
2023-02-18T20:57:42.106Z,6.98
2023-02-18T21:00:09.448Z,6.62
2023-02-18T21:02:36.214Z,6.89
2023-02-18T21:05:03.041Z,6.86
2023-02-18T21:07:29.696Z,6.84
2023-02-18T21:09:56.330Z,6.84
2023-02-18T21:12:22.947Z,6.85
2023-02-18T21:14:49.639Z,6.82
2023-02-18T21:17:16.377Z,6.85
2023-02-18T21:19:43.566Z,6.84
2023-02-18T21:22:10.295Z,6.91
2023-02-18T21:24:36.999Z,6.64
2023-02-18T21:27:03.872Z,6.87
2023-02-18T21:29:30.729Z,7.02
2023-02-18T21:31:57.392Z,7.04
2023-02-18T21:34:25.997Z,6.69
2023-02-18T21:36:52.644Z,6.63
2023-02-18T21:39:19.494Z,6.93
2023-02-18T21:41:49.598Z,7.02
2023-02-18T21:44:16.160Z,6.93
2023-02-18T21:46:42.899Z,6.82
2023-02-18T21:49:10.611Z,7.00
2023-02-18T21:52:08.430Z,6.99
2023-02-18T21:54:41.206Z,6.99
2023-02-18T21:57:11.436Z,7.01
2023-02-18T21:59:41.110Z,6.87
2023-02-18T22:02:16.210Z,6.91
2023-02-18T22:04:42.911Z,6.84
2023-02-18T22:07:09.707Z,7.04
2023-02-18T22:09:36.694Z,6.77
2023-02-18T22:12:03.756Z,6.93
2023-02-18T22:14:30.630Z,6.76
2023-02-18T22:16:57.909Z,6.69
2023-02-18T22:19:24.758Z,6.80
2023-02-18T22:21:51.459Z,6.66
2023-02-18T22:24:19.072Z,6.89
2023-02-18T22:26:46.613Z,6.71
2023-02-18T22:29:15.053Z,6.84
2023-02-18T22:31:42.150Z,6.82
2023-02-18T22:34:09.346Z,6.85
2023-02-18T22:36:35.963Z,6.67
2023-02-18T22:39:04.676Z,6.80
2023-02-18T22:41:32.574Z,6.77
2023-02-18T22:44:01.727Z,6.89
2023-02-18T22:46:30.371Z,6.69
2023-02-18T22:48:57.432Z,6.72
2023-02-18T22:51:29.645Z,6.64
2023-02-18T22:53:57.989Z,6.72
2023-02-18T22:56:26.666Z,6.61
2023-02-18T22:58:54.818Z,6.49
2023-02-18T23:01:23.037Z,6.66
2023-02-18T23:03:50.812Z,6.46
2023-02-18T23:06:18.257Z,6.60
2023-02-18T23:08:45.741Z,6.34
2023-02-18T23:11:15.337Z,6.59
2023-02-18T23:13:42.711Z,6.61
2023-02-18T23:16:12.892Z,6.58
2023-02-18T23:18:40.105Z,6.61
2023-02-18T23:21:17.265Z,6.45
2023-02-18T23:23:52.731Z,6.54
2023-02-18T23:26:21.893Z,6.65
2023-02-18T23:28:50.686Z,6.66
2023-02-18T23:31:17.459Z,6.67
2023-02-18T23:33:44.980Z,6.57
2023-02-18T23:36:17.335Z,6.64
2023-02-18T23:38:48.891Z,6.40
2023-02-18T23:41:16.735Z,6.43
2023-02-18T23:43:44.109Z,6.38
2023-02-18T23:46:11.432Z,6.52
2023-02-18T23:48:38.651Z,6.64
2023-02-18T23:51:07.359Z,6.52
2023-02-18T23:53:36.114Z,6.63
2023-02-18T23:56:07.233Z,6.67
2023-02-18T23:58:36.994Z,6.48
